Merrittstown, PA (15463)

6:44 AM EDT on September 19, 2014 (GMT -0400)
HillTop Rices Landing | Change Station
CLOSE
Current Station
Personal Weather Station
Location: Rices Landing, PA
Elevation: 1118 ft
Nearby Weather Stations

Elev 1118 ft 39.93 °N, 79.95 °W | Updated 4 seconds ago

Partly Cloudy
Partly Cloudy
43.2 °F
Feels Like 43 °F
N
0.0
Wind Variable Wind from WNW
Gusts 0.0 mph

Today
High -- | Low -- °F
--% Chance of Precip.
Yesterday
High -- | Low -- °F
Precip. -- in
7:04 AM 7:21 PM
Waning Crescent, 20% visible
Pressure 30.19 in
Visibility 6.0 miles
Clouds Mostly Cloudy 6500 ft
Windchill 43 °F
Dew Point 42 °F
Humidity 94%
Rainfall 0.00 in
Snow Depth Not available.
UV 0 out of 12
Pollen 3.80 out of 12
Air Quality Not available.
Flu Activity Not available.
METAR KMGW 190953Z AUTO 36003KT 6SM BR BKN065 11/08 A3020 RMK AO2 SLP224 T01060083 TSNO

More Conditions Fewer Conditions

Pressure 30.19 in
Visibility 6.0 miles
Clouds Mostly Cloudy 6500 ft
Windchill 43 °F
Dew Point 42 °F
Humidity 94%
Rainfall 0.00 in
Snow Depth Not available.
UV 0 out of 12
Pollen 3.80 out of 12
Air Quality Not available.
Flu Activity Not available.
METAR KMGW 190953Z AUTO 36003KT 6SM BR BKN065 11/08 A3020 RMK AO2 SLP224 T01060083 TSNO

More Conditions Fewer Conditions

10-Day Weather Forecast

Almanac

Astronomy

Sep. 19, 2014 Rise Set
Actual Time 7:04 AM EDT 7:21 PM EDT
Civil Twilight 6:37 AM EDT 7:48 PM EDT
Nautical Twilight 6:05 AM EDT 8:20 PM EDT
Astronomical Twilight 5:32 AM EDT 8:52 PM EDT
Moon 2:48 AM EDT 4:49 PM EDT
Length of Visible Light 13h 11m
Length of Day
12h 17m
Tomorrow will be 2m 36s shorter.
Waning Crescent, 20% of the Moon is Illuminated
Today
Waning Crescent
Sep 24
New
Oct 1
First Quarter
Oct 8
Full
Oct 15
Last Quarter

Today's Extremes

State Highs State Lows

Community

WunderPhotos

Upload Photos

1,754,591 photos uploaded!

Nearby

Snow Depth

Station Depth Elevation
No new snow has been reported.

Earthquake Activity

City Distance Mag. Time & Date
No recent earthquake activity has been reported nearby.
Minimum magnitude displayed is 2.5.

Coastal Water Temperatures

Place Temperature
No Stations Reporting

Nearby Weather Stations